Main page
METAR-TAF:

METAR-TAF

Airports :

Pearland Regional Airport

Houston / Pearland, Texas, United States

latitude: 29-31-16N, longitude: 095-14-31W, elevation: 43 ft

Current weather observation

The report was made 53 minutes ago, at 12:53 UTC
Wind 9 mph from the Southeast
Temperature 81°F
Humidity 84%
Pressure 29.91 in. Hg
Visibility: 7 miles
Overcast at a height of 1300 ft

METAR: KLVJ 201253Z AUTO 14008KT 7SM OVC013 27/24 A2991 RMK AO2 SLP128 T02670239

Time: 08:46 (13:46 UTC)


TAF: missing

Weather observations and forecasts of more than 4000 airports (METAR and TAF reports).

The available stations are represented by yellow and red dots on the map.

Hover mouse over dot to see the name of the station.

Then click to see weather observations and forecasts.

To change the map : click on the green buttons with a black cross to zoom in, on the green button with a dash to zoom out, or on the green arrows for adjacent maps.


METAR-TAF: